sensor_id;sensor_type;location;lat;lon;timestamp;temperature;humidity
7196;DHT22;3639;51.308;5.624;2023-06-14T00:00:31;19.10;79.80
7196;DHT22;3639;51.308;5.624;2023-06-14T00:02:56;19.10;79.20
7196;DHT22;3639;51.308;5.624;2023-06-14T00:05:23;19.10;79.00
7196;DHT22;3639;51.308;5.624;2023-06-14T00:07:49;19.10;79.00
7196;DHT22;3639;51.308;5.624;2023-06-14T00:10:19;19.00;78.60
7196;DHT22;3639;51.308;5.624;2023-06-14T00:12:44;19.00;78.80
7196;DHT22;3639;51.308;5.624;2023-06-14T00:15:10;18.90;78.80
7196;DHT22;3639;51.308;5.624;2023-06-14T00:17:36;18.90;78.90
7196;DHT22;3639;51.308;5.624;2023-06-14T00:20:03;18.90;79.00
7196;DHT22;3639;51.308;5.624;2023-06-14T00:22:30;18.90;79.00
7196;DHT22;3639;51.308;5.624;2023-06-14T00:24:57;18.90;79.10
7196;DHT22;3639;51.308;5.624;2023-06-14T00:27:22;18.80;79.80
7196;DHT22;3639;51.308;5.624;2023-06-14T00:29:48;18.70;80.00
7196;DHT22;3639;51.308;5.624;2023-06-14T00:32:14;18.60;80.30
7196;DHT22;3639;51.308;5.624;2023-06-14T00:34:39;18.60;80.40
7196;DHT22;3639;51.308;5.624;2023-06-14T00:37:05;18.60;80.50
7196;DHT22;3639;51.308;5.624;2023-06-14T00:39:30;18.50;81.30
7196;DHT22;3639;51.308;5.624;2023-06-14T00:41:56;18.40;81.70
7196;DHT22;3639;51.308;5.624;2023-06-14T00:44:23;18.30;82.50
7196;DHT22;3639;51.308;5.624;2023-06-14T00:46:50;18.20;82.80
7196;DHT22;3639;51.308;5.624;2023-06-14T00:49:17;18.10;82.80
7196;DHT22;3639;51.308;5.624;2023-06-14T00:51:43;18.00;83.10
7196;DHT22;3639;51.308;5.624;2023-06-14T00:54:09;17.90;83.20
7196;DHT22;3639;51.308;5.624;2023-06-14T00:56:36;17.90;83.20
7196;DHT22;3639;51.308;5.624;2023-06-14T00:59:02;17.90;83.30
7196;DHT22;3639;51.308;5.624;2023-06-14T01:01:29;17.80;83.50
7196;DHT22;3639;51.308;5.624;2023-06-14T01:03:58;17.80;83.70
7196;DHT22;3639;51.308;5.624;2023-06-14T01:06:35;17.80;84.30
7196;DHT22;3639;51.308;5.624;2023-06-14T01:09:35;17.70;84.10
7196;DHT22;3639;51.308;5.624;2023-06-14T01:12:11;17.60;83.90
7196;DHT22;3639;51.308;5.624;2023-06-14T01:14:39;17.60;84.20
7196;DHT22;3639;51.308;5.624;2023-06-14T01:17:05;17.50;84.20
7196;DHT22;3639;51.308;5.624;2023-06-14T01:19:33;17.50;84.30
7196;DHT22;3639;51.308;5.624;2023-06-14T01:22:01;17.50;84.40
7196;DHT22;3639;51.308;5.624;2023-06-14T01:24:27;17.40;84.30
7196;DHT22;3639;51.308;5.624;2023-06-14T01:26:55;17.40;84.30
7196;DHT22;3639;51.308;5.624;2023-06-14T01:29:25;17.40;84.50
7196;DHT22;3639;51.308;5.624;2023-06-14T01:31:53;17.30;84.80
7196;DHT22;3639;51.308;5.624;2023-06-14T01:34:19;17.30;85.00
7196;DHT22;3639;51.308;5.624;2023-06-14T01:36:46;17.30;84.90
7196;DHT22;3639;51.308;5.624;2023-06-14T01:39:14;17.20;85.00
7196;DHT22;3639;51.308;5.624;2023-06-14T01:41:44;17.20;85.10
7196;DHT22;3639;51.308;5.624;2023-06-14T01:44:12;17.20;85.40
7196;DHT22;3639;51.308;5.624;2023-06-14T01:46:40;17.20;85.40
7196;DHT22;3639;51.308;5.624;2023-06-14T01:49:06;17.10;85.40
7196;DHT22;3639;51.308;5.624;2023-06-14T01:51:32;17.10;85.50
7196;DHT22;3639;51.308;5.624;2023-06-14T01:53:58;17.10;85.70
7196;DHT22;3639;51.308;5.624;2023-06-14T01:56:23;17.10;85.80
7196;DHT22;3639;51.308;5.624;2023-06-14T01:58:49;17.00;86.10
7196;DHT22;3639;51.308;5.624;2023-06-14T02:01:15;16.90;86.00
7196;DHT22;3639;51.308;5.624;2023-06-14T02:03:41;16.90;86.30
7196;DHT22;3639;51.308;5.624;2023-06-14T02:06:08;16.90;86.60
7196;DHT22;3639;51.308;5.624;2023-06-14T02:08:33;16.80;86.60
7196;DHT22;3639;51.308;5.624;2023-06-14T02:10:59;16.80;86.70
7196;DHT22;3639;51.308;5.624;2023-06-14T02:13:24;16.70;87.00
7196;DHT22;3639;51.308;5.624;2023-06-14T02:15:50;16.70;87.00
7196;DHT22;3639;51.308;5.624;2023-06-14T02:18:20;16.70;86.90
7196;DHT22;3639;51.308;5.624;2023-06-14T02:20:45;16.60;86.70
7196;DHT22;3639;51.308;5.624;2023-06-14T02:23:11;16.60;87.20
7196;DHT22;3639;51.308;5.624;2023-06-14T02:25:36;16.50;87.20
7196;DHT22;3639;51.308;5.624;2023-06-14T02:28:02;16.50;87.30
7196;DHT22;3639;51.308;5.624;2023-06-14T02:30:28;16.50;87.10
7196;DHT22;3639;51.308;5.624;2023-06-14T02:32:53;16.50;86.90
7196;DHT22;3639;51.308;5.624;2023-06-14T02:35:19;16.40;87.10
7196;DHT22;3639;51.308;5.624;2023-06-14T02:37:46;16.40;87.20
7196;DHT22;3639;51.308;5.624;2023-06-14T02:40:11;16.40;87.10
7196;DHT22;3639;51.308;5.624;2023-06-14T02:42:37;16.40;86.90
7196;DHT22;3639;51.308;5.624;2023-06-14T02:45:03;16.30;86.90
7196;DHT22;3639;51.308;5.624;2023-06-14T02:47:29;16.30;87.00
7196;DHT22;3639;51.308;5.624;2023-06-14T02:49:55;16.30;87.10
7196;DHT22;3639;51.308;5.624;2023-06-14T02:52:20;16.30;87.00
7196;DHT22;3639;51.308;5.624;2023-06-14T02:54:47;16.20;86.90
7196;DHT22;3639;51.308;5.624;2023-06-14T02:57:14;16.20;87.20
7196;DHT22;3639;51.308;5.624;2023-06-14T02:59:40;16.20;87.30
7196;DHT22;3639;51.308;5.624;2023-06-14T03:02:05;16.20;87.10
7196;DHT22;3639;51.308;5.624;2023-06-14T03:04:31;16.20;87.40
7196;DHT22;3639;51.308;5.624;2023-06-14T03:07:02;16.20;87.40
7196;DHT22;3639;51.308;5.624;2023-06-14T03:09:37;16.20;87.30
7196;DHT22;3639;51.308;5.624;2023-06-14T03:12:04;16.10;87.60
7196;DHT22;3639;51.308;5.624;2023-06-14T03:14:32;16.10;87.90
7196;DHT22;3639;51.308;5.624;2023-06-14T03:16:58;16.00;88.00
7196;DHT22;3639;51.308;5.624;2023-06-14T03:19:24;16.00;87.90
7196;DHT22;3639;51.308;5.624;2023-06-14T03:21:51;16.00;88.30
7196;DHT22;3639;51.308;5.624;2023-06-14T03:24:16;16.00;88.40
7196;DHT22;3639;51.308;5.624;2023-06-14T03:26:42;16.00;88.40
7196;DHT22;3639;51.308;5.624;2023-06-14T03:29:08;16.00;88.30
7196;DHT22;3639;51.308;5.624;2023-06-14T03:31:59;16.00;89.00
7196;DHT22;3639;51.308;5.624;2023-06-14T03:34:24;16.00;89.10
7196;DHT22;3639;51.308;5.624;2023-06-14T03:36:50;16.00;89.30
7196;DHT22;3639;51.308;5.624;2023-06-14T03:39:16;16.00;88.80
7196;DHT22;3639;51.308;5.624;2023-06-14T03:41:41;16.00;88.60
7196;DHT22;3639;51.308;5.624;2023-06-14T03:44:07;16.00;88.70
7196;DHT22;3639;51.308;5.624;2023-06-14T03:46:35;16.00;88.90
7196;DHT22;3639;51.308;5.624;2023-06-14T03:49:00;16.00;89.80
7196;DHT22;3639;51.308;5.624;2023-06-14T03:51:28;16.00;90.00
7196;DHT22;3639;51.308;5.624;2023-06-14T03:53:54;16.10;89.80
7196;DHT22;3639;51.308;5.624;2023-06-14T03:56:21;16.10;89.40
7196;DHT22;3639;51.308;5.624;2023-06-14T03:58:46;16.10;89.00
7196;DHT22;3639;51.308;5.624;2023-06-14T04:01:12;16.00;89.10
7196;DHT22;3639;51.308;5.624;2023-06-14T04:03:38;16.00;89.00
7196;DHT22;3639;51.308;5.624;2023-06-14T04:06:05;16.00;89.60
7196;DHT22;3639;51.308;5.624;2023-06-14T04:08:31;16.00;89.30
7196;DHT22;3639;51.308;5.624;2023-06-14T04:10:57;16.00;89.10
7196;DHT22;3639;51.308;5.624;2023-06-14T04:13:23;16.00;89.20
7196;DHT22;3639;51.308;5.624;2023-06-14T04:15:48;16.00;89.10
7196;DHT22;3639;51.308;5.624;2023-06-14T04:18:14;16.00;89.00
7196;DHT22;3639;51.308;5.624;2023-06-14T04:20:39;16.00;89.20
7196;DHT22;3639;51.308;5.624;2023-06-14T04:23:16;16.10;89.20
7196;DHT22;3639;51.308;5.624;2023-06-14T04:25:43;16.00;89.60
7196;DHT22;3639;51.308;5.624;2023-06-14T04:28:11;16.00;89.60
7196;DHT22;3639;51.308;5.624;2023-06-14T04:30:37;16.00;89.90
7196;DHT22;3639;51.308;5.624;2023-06-14T04:33:04;16.10;89.90
7196;DHT22;3639;51.308;5.624;2023-06-14T04:35:31;16.10;89.80
7196;DHT22;3639;51.308;5.624;2023-06-14T04:37:58;16.10;90.10
7196;DHT22;3639;51.308;5.624;2023-06-14T04:40:24;16.10;90.20
7196;DHT22;3639;51.308;5.624;2023-06-14T04:42:50;16.10;90.20
7196;DHT22;3639;51.308;5.624;2023-06-14T04:45:16;16.10;90.30
7196;DHT22;3639;51.308;5.624;2023-06-14T04:47:42;16.20;90.40
7196;DHT22;3639;51.308;5.624;2023-06-14T04:50:09;16.20;90.10
7196;DHT22;3639;51.308;5.624;2023-06-14T04:52:38;16.30;90.20
7196;DHT22;3639;51.308;5.624;2023-06-14T04:55:04;16.30;90.20
7196;DHT22;3639;51.308;5.624;2023-06-14T04:57:31;16.30;90.10
7196;DHT22;3639;51.308;5.624;2023-06-14T04:59:57;16.40;90.10
7196;DHT22;3639;51.308;5.624;2023-06-14T05:02:23;16.50;90.10
7196;DHT22;3639;51.308;5.624;2023-06-14T05:04:49;16.50;90.00
7196;DHT22;3639;51.308;5.624;2023-06-14T05:07:15;16.60;90.00
7196;DHT22;3639;51.308;5.624;2023-06-14T05:09:41;16.60;89.70
7196;DHT22;3639;51.308;5.624;2023-06-14T05:12:07;16.70;89.60
7196;DHT22;3639;51.308;5.624;2023-06-14T05:14:33;16.80;89.60
7196;DHT22;3639;51.308;5.624;2023-06-14T05:17:00;16.80;89.60
7196;DHT22;3639;51.308;5.624;2023-06-14T05:19:25;16.90;90.20
7196;DHT22;3639;51.308;5.624;2023-06-14T05:21:52;17.00;89.40
7196;DHT22;3639;51.308;5.624;2023-06-14T05:24:18;17.10;88.60
7196;DHT22;3639;51.308;5.624;2023-06-14T05:26:45;17.10;88.00
7196;DHT22;3639;51.308;5.624;2023-06-14T05:29:10;17.20;88.40
7196;DHT22;3639;51.308;5.624;2023-06-14T05:31:36;17.30;88.60
7196;DHT22;3639;51.308;5.624;2023-06-14T05:34:02;17.30;87.80
7196;DHT22;3639;51.308;5.624;2023-06-14T05:36:27;17.40;87.50
7196;DHT22;3639;51.308;5.624;2023-06-14T05:38:54;17.50;87.80
7196;DHT22;3639;51.308;5.624;2023-06-14T05:41:25;17.60;87.50
7196;DHT22;3639;51.308;5.624;2023-06-14T05:43:52;17.70;87.00
7196;DHT22;3639;51.308;5.624;2023-06-14T05:46:18;17.70;87.10
7196;DHT22;3639;51.308;5.624;2023-06-14T05:48:47;17.80;87.00
7196;DHT22;3639;51.308;5.624;2023-06-14T05:51:13;17.90;86.50
7196;DHT22;3639;51.308;5.624;2023-06-14T05:53:40;18.00;86.30
7196;DHT22;3639;51.308;5.624;2023-06-14T05:56:05;18.10;86.50
7196;DHT22;3639;51.308;5.624;2023-06-14T05:58:31;18.20;85.90
7196;DHT22;3639;51.308;5.624;2023-06-14T06:00:56;18.20;85.60
7196;DHT22;3639;51.308;5.624;2023-06-14T06:03:23;18.30;85.20
7196;DHT22;3639;51.308;5.624;2023-06-14T06:05:48;18.30;84.90
7196;DHT22;3639;51.308;5.624;2023-06-14T06:08:14;18.40;84.80
7196;DHT22;3639;51.308;5.624;2023-06-14T06:10:39;18.50;84.70
7196;DHT22;3639;51.308;5.624;2023-06-14T06:13:05;18.60;84.80
7196;DHT22;3639;51.308;5.624;2023-06-14T06:15:30;18.70;84.90
7196;DHT22;3639;51.308;5.624;2023-06-14T06:17:56;18.80;85.20
7196;DHT22;3639;51.308;5.624;2023-06-14T06:20:25;18.90;83.70
7196;DHT22;3639;51.308;5.624;2023-06-14T06:22:55;19.00;83.30
7196;DHT22;3639;51.308;5.624;2023-06-14T06:25:20;19.10;83.70
7196;DHT22;3639;51.308;5.624;2023-06-14T06:27:47;19.20;84.00
7196;DHT22;3639;51.308;5.624;2023-06-14T06:30:13;19.40;83.20
7196;DHT22;3639;51.308;5.624;2023-06-14T06:32:39;19.50;82.60
7196;DHT22;3639;51.308;5.624;2023-06-14T06:35:05;19.60;82.30
7196;DHT22;3639;51.308;5.624;2023-06-14T06:37:32;19.70;82.50
7196;DHT22;3639;51.308;5.624;2023-06-14T06:39:58;19.80;81.90
7196;DHT22;3639;51.308;5.624;2023-06-14T06:42:23;20.00;82.00
7196;DHT22;3639;51.308;5.624;2023-06-14T06:44:49;20.20;81.80
7196;DHT22;3639;51.308;5.624;2023-06-14T06:47:15;20.40;79.50
7196;DHT22;3639;51.308;5.624;2023-06-14T06:49:40;20.60;79.60
7196;DHT22;3639;51.308;5.624;2023-06-14T06:52:06;20.60;78.70
7196;DHT22;3639;51.308;5.624;2023-06-14T06:54:33;20.70;77.40
7196;DHT22;3639;51.308;5.624;2023-06-14T06:56:59;20.80;78.70
7196;DHT22;3639;51.308;5.624;2023-06-14T06:59:26;21.00;77.60
7196;DHT22;3639;51.308;5.624;2023-06-14T07:01:51;21.10;76.80
7196;DHT22;3639;51.308;5.624;2023-06-14T07:04:17;21.10;76.40
7196;DHT22;3639;51.308;5.624;2023-06-14T07:06:43;21.20;76.30
7196;DHT22;3639;51.308;5.624;2023-06-14T07:09:09;21.10;76.20
7196;DHT22;3639;51.308;5.624;2023-06-14T07:11:39;21.10;75.90
7196;DHT22;3639;51.308;5.624;2023-06-14T07:14:05;21.20;76.00
7196;DHT22;3639;51.308;5.624;2023-06-14T07:16:30;21.40;76.40
7196;DHT22;3639;51.308;5.624;2023-06-14T07:18:56;21.70;76.90
7196;DHT22;3639;51.308;5.624;2023-06-14T07:21:22;21.90;75.40
7196;DHT22;3639;51.308;5.624;2023-06-14T07:23:47;22.20;73.80
7196;DHT22;3639;51.308;5.624;2023-06-14T07:26:13;22.20;72.20
7196;DHT22;3639;51.308;5.624;2023-06-14T07:28:38;22.30;72.60
7196;DHT22;3639;51.308;5.624;2023-06-14T07:31:04;22.50;72.80
7196;DHT22;3639;51.308;5.624;2023-06-14T07:33:30;22.60;73.10
7196;DHT22;3639;51.308;5.624;2023-06-14T07:35:55;22.60;70.50
7196;DHT22;3639;51.308;5.624;2023-06-14T07:38:21;22.70;70.60
7196;DHT22;3639;51.308;5.624;2023-06-14T07:40:46;22.70;71.00
7196;DHT22;3639;51.308;5.624;2023-06-14T07:43:12;22.70;70.60
7196;DHT22;3639;51.308;5.624;2023-06-14T07:45:38;22.60;69.30
7196;DHT22;3639;51.308;5.624;2023-06-14T07:48:03;22.70;69.80
7196;DHT22;3639;51.308;5.624;2023-06-14T07:50:29;22.70;69.80
7196;DHT22;3639;51.308;5.624;2023-06-14T07:52:55;22.80;69.00
7196;DHT22;3639;51.308;5.624;2023-06-14T07:55:21;22.80;69.80
7196;DHT22;3639;51.308;5.624;2023-06-14T07:57:46;23.00;68.90
7196;DHT22;3639;51.308;5.624;2023-06-14T08:00:12;23.20;70.10
7196;DHT22;3639;51.308;5.624;2023-06-14T08:02:41;23.50;70.40
7196;DHT22;3639;51.308;5.624;2023-06-14T08:05:09;23.60;67.90
7196;DHT22;3639;51.308;5.624;2023-06-14T08:07:35;23.60;68.50
7196;DHT22;3639;51.308;5.624;2023-06-14T08:10:00;23.70;67.80
7196;DHT22;3639;51.308;5.624;2023-06-14T08:12:26;23.60;68.00
7196;DHT22;3639;51.308;5.624;2023-06-14T08:14:51;23.60;67.40
7196;DHT22;3639;51.308;5.624;2023-06-14T08:17:17;23.60;66.80
7196;DHT22;3639;51.308;5.624;2023-06-14T08:19:43;23.80;67.60
7196;DHT22;3639;51.308;5.624;2023-06-14T08:22:08;23.90;64.70
7196;DHT22;3639;51.308;5.624;2023-06-14T08:24:36;23.90;63.10
7196;DHT22;3639;51.308;5.624;2023-06-14T08:27:02;23.70;62.50
7196;DHT22;3639;51.308;5.624;2023-06-14T08:29:28;23.80;64.00
7196;DHT22;3639;51.308;5.624;2023-06-14T08:31:56;24.00;64.00
7196;DHT22;3639;51.308;5.624;2023-06-14T08:34:22;24.30;64.60
7196;DHT22;3639;51.308;5.624;2023-06-14T08:36:51;24.40;64.30
7196;DHT22;3639;51.308;5.624;2023-06-14T08:39:17;24.40;63.40
7196;DHT22;3639;51.308;5.624;2023-06-14T08:41:46;24.60;64.10
7196;DHT22;3639;51.308;5.624;2023-06-14T08:44:12;24.70;61.20
7196;DHT22;3639;51.308;5.624;2023-06-14T08:46:38;24.40;61.50
7196;DHT22;3639;51.308;5.624;2023-06-14T08:49:04;24.30;61.30
7196;DHT22;3639;51.308;5.624;2023-06-14T08:51:35;24.20;60.10
7196;DHT22;3639;51.308;5.624;2023-06-14T08:54:02;24.30;61.30
7196;DHT22;3639;51.308;5.624;2023-06-14T08:56:30;24.30;61.30
7196;DHT22;3639;51.308;5.624;2023-06-14T08:58:58;24.40;62.80
7196;DHT22;3639;51.308;5.624;2023-06-14T09:01:28;24.50;59.90
7196;DHT22;3639;51.308;5.624;2023-06-14T09:03:54;24.70;59.50
7196;DHT22;3639;51.308;5.624;2023-06-14T09:06:23;24.80;61.40
7196;DHT22;3639;51.308;5.624;2023-06-14T09:08:50;25.00;58.10
7196;DHT22;3639;51.308;5.624;2023-06-14T09:11:18;25.10;56.20
7196;DHT22;3639;51.308;5.624;2023-06-14T09:13:45;24.80;54.30
7196;DHT22;3639;51.308;5.624;2023-06-14T09:16:11;24.90;56.70
7196;DHT22;3639;51.308;5.624;2023-06-14T09:18:37;25.10;56.30
7196;DHT22;3639;51.308;5.624;2023-06-14T09:21:05;25.40;56.10
7196;DHT22;3639;51.308;5.624;2023-06-14T09:23:36;25.30;54.00
7196;DHT22;3639;51.308;5.624;2023-06-14T09:26:13;25.40;54.90
7196;DHT22;3639;51.308;5.624;2023-06-14T09:28:47;25.60;54.90
7196;DHT22;3639;51.308;5.624;2023-06-14T09:31:14;25.70;52.20
7196;DHT22;3639;51.308;5.624;2023-06-14T09:33:48;25.50;51.50
7196;DHT22;3639;51.308;5.624;2023-06-14T09:36:20;25.30;50.10
7196;DHT22;3639;51.308;5.624;2023-06-14T09:38:57;25.30;51.00
7196;DHT22;3639;51.308;5.624;2023-06-14T09:44:08;25.30;50.30
7196;DHT22;3639;51.308;5.624;2023-06-14T09:46:35;25.30;50.00
7196;DHT22;3639;51.308;5.624;2023-06-14T09:49:03;25.40;52.30
7196;DHT22;3639;51.308;5.624;2023-06-14T09:51:29;25.30;49.20
7196;DHT22;3639;51.308;5.624;2023-06-14T09:53:59;25.20;51.40
7196;DHT22;3639;51.308;5.624;2023-06-14T09:56:29;25.20;50.80
7196;DHT22;3639;51.308;5.624;2023-06-14T09:58:57;25.20;51.50
7196;DHT22;3639;51.308;5.624;2023-06-14T10:01:27;25.30;51.80
7196;DHT22;3639;51.308;5.624;2023-06-14T10:04:05;25.50;51.30
7196;DHT22;3639;51.308;5.624;2023-06-14T10:06:31;25.70;50.90
7196;DHT22;3639;51.308;5.624;2023-06-14T10:08:58;25.50;50.10
7196;DHT22;3639;51.308;5.624;2023-06-14T10:11:27;25.60;49.40
7196;DHT22;3639;51.308;5.624;2023-06-14T10:13:54;25.70;48.80
7196;DHT22;3639;51.308;5.624;2023-06-14T10:16:47;25.60;49.10
7196;DHT22;3639;51.308;5.624;2023-06-14T10:19:19;25.60;49.90
7196;DHT22;3639;51.308;5.624;2023-06-14T10:24:20;25.30;49.30
7196;DHT22;3639;51.308;5.624;2023-06-14T10:26:53;25.60;50.60
7196;DHT22;3639;51.308;5.624;2023-06-14T10:29:18;25.60;49.00
7196;DHT22;3639;51.308;5.624;2023-06-14T10:31:55;25.60;50.00
7196;DHT22;3639;51.308;5.624;2023-06-14T10:34:26;25.80;49.40
7196;DHT22;3639;51.308;5.624;2023-06-14T10:37:03;25.80;49.70
7196;DHT22;3639;51.308;5.624;2023-06-14T10:39:29;25.70;48.90
7196;DHT22;3639;51.308;5.624;2023-06-14T10:41:56;25.40;48.40
7196;DHT22;3639;51.308;5.624;2023-06-14T10:46:48;25.30;49.80
7196;DHT22;3639;51.308;5.624;2023-06-14T10:49:18;25.30;49.70
7196;DHT22;3639;51.308;5.624;2023-06-14T10:51:50;25.30;50.70
7196;DHT22;3639;51.308;5.624;2023-06-14T10:54:16;25.60;52.30
7196;DHT22;3639;51.308;5.624;2023-06-14T10:56:52;25.50;50.30
7196;DHT22;3639;51.308;5.624;2023-06-14T10:59:19;25.40;51.10
7196;DHT22;3639;51.308;5.624;2023-06-14T11:04:50;25.30;50.70
7196;DHT22;3639;51.308;5.624;2023-06-14T11:12:39;25.60;53.30
7196;DHT22;3639;51.308;5.624;2023-06-14T11:15:08;25.50;51.60
7196;DHT22;3639;51.308;5.624;2023-06-14T11:17:33;25.70;53.70
7196;DHT22;3639;51.308;5.624;2023-06-14T11:20:12;25.90;51.60
7196;DHT22;3639;51.308;5.624;2023-06-14T11:22:41;26.10;52.90
7196;DHT22;3639;51.308;5.624;2023-06-14T11:25:13;26.20;52.60
7196;DHT22;3639;51.308;5.624;2023-06-14T11:27:41;26.30;51.40
7196;DHT22;3639;51.308;5.624;2023-06-14T11:30:08;26.20;50.40
7196;DHT22;3639;51.308;5.624;2023-06-14T11:32:38;26.10;51.10
7196;DHT22;3639;51.308;5.624;2023-06-14T11:35:04;25.80;50.50
7196;DHT22;3639;51.308;5.624;2023-06-14T11:37:31;25.80;51.40
7196;DHT22;3639;51.308;5.624;2023-06-14T11:40:00;26.10;51.70
7196;DHT22;3639;51.308;5.624;2023-06-14T11:42:29;25.90;50.40
7196;DHT22;3639;51.308;5.624;2023-06-14T11:44:55;25.70;52.50
7196;DHT22;3639;51.308;5.624;2023-06-14T11:47:22;26.00;52.80
7196;DHT22;3639;51.308;5.624;2023-06-14T11:49:47;26.10;52.50
7196;DHT22;3639;51.308;5.624;2023-06-14T11:52:13;26.30;54.20
7196;DHT22;3639;51.308;5.624;2023-06-14T11:54:39;26.60;52.50
7196;DHT22;3639;51.308;5.624;2023-06-14T11:57:06;26.50;52.70
7196;DHT22;3639;51.308;5.624;2023-06-14T11:59:38;26.40;50.80
7196;DHT22;3639;51.308;5.624;2023-06-14T12:02:05;26.20;51.00
7196;DHT22;3639;51.308;5.624;2023-06-14T12:04:31;26.10;51.40
7196;DHT22;3639;51.308;5.624;2023-06-14T12:06:57;26.20;53.50
7196;DHT22;3639;51.308;5.624;2023-06-14T12:09:23;26.20;52.30
7196;DHT22;3639;51.308;5.624;2023-06-14T12:12:00;26.20;52.40
7196;DHT22;3639;51.308;5.624;2023-06-14T12:14:30;26.00;53.40
7196;DHT22;3639;51.308;5.624;2023-06-14T12:17:04;26.00;53.80
7196;DHT22;3639;51.308;5.624;2023-06-14T12:19:31;26.00;53.80
7196;DHT22;3639;51.308;5.624;2023-06-14T12:21:59;26.10;54.20
7196;DHT22;3639;51.308;5.624;2023-06-14T12:24:29;26.20;53.30
7196;DHT22;3639;51.308;5.624;2023-06-14T12:26:57;26.40;51.70
7196;DHT22;3639;51.308;5.624;2023-06-14T12:29:25;26.20;49.90
7196;DHT22;3639;51.308;5.624;2023-06-14T12:31:51;26.20;50.50
7196;DHT22;3639;51.308;5.624;2023-06-14T12:34:16;25.90;50.20
7196;DHT22;3639;51.308;5.624;2023-06-14T12:36:42;25.80;52.20
7196;DHT22;3639;51.308;5.624;2023-06-14T12:39:10;25.90;53.40
7196;DHT22;3639;51.308;5.624;2023-06-14T12:41:35;26.00;52.00
7196;DHT22;3639;51.308;5.624;2023-06-14T12:44:02;25.80;52.50
7196;DHT22;3639;51.308;5.624;2023-06-14T12:46:30;25.60;52.50
7196;DHT22;3639;51.308;5.624;2023-06-14T12:48:56;25.70;52.50
7196;DHT22;3639;51.308;5.624;2023-06-14T12:51:22;25.70;51.90
7196;DHT22;3639;51.308;5.624;2023-06-14T12:53:49;25.50;51.70
7196;DHT22;3639;51.308;5.624;2023-06-14T12:56:14;25.70;52.30
7196;DHT22;3639;51.308;5.624;2023-06-14T12:58:41;25.70;51.70
7196;DHT22;3639;51.308;5.624;2023-06-14T13:01:07;25.70;52.50
7196;DHT22;3639;51.308;5.624;2023-06-14T13:03:32;25.70;52.80
7196;DHT22;3639;51.308;5.624;2023-06-14T13:06:01;25.60;52.70
7196;DHT22;3639;51.308;5.624;2023-06-14T13:08:28;25.70;51.70
7196;DHT22;3639;51.308;5.624;2023-06-14T13:10:54;25.80;51.30
7196;DHT22;3639;51.308;5.624;2023-06-14T13:13:19;26.00;50.10
7196;DHT22;3639;51.308;5.624;2023-06-14T13:15:45;26.10;51.20
7196;DHT22;3639;51.308;5.624;2023-06-14T13:18:11;26.10;51.20
7196;DHT22;3639;51.308;5.624;2023-06-14T13:20:39;26.00;50.00
7196;DHT22;3639;51.308;5.624;2023-06-14T13:23:04;26.10;50.60
7196;DHT22;3639;51.308;5.624;2023-06-14T13:25:33;26.00;49.60
7196;DHT22;3639;51.308;5.624;2023-06-14T13:27:59;25.80;49.00
7196;DHT22;3639;51.308;5.624;2023-06-14T13:30:24;25.70;49.60
7196;DHT22;3639;51.308;5.624;2023-06-14T13:32:50;25.70;50.00
7196;DHT22;3639;51.308;5.624;2023-06-14T13:35:17;25.80;51.40
7196;DHT22;3639;51.308;5.624;2023-06-14T13:37:43;25.90;51.50
7196;DHT22;3639;51.308;5.624;2023-06-14T13:40:09;25.90;51.50
7196;DHT22;3639;51.308;5.624;2023-06-14T13:42:35;25.90;51.70
7196;DHT22;3639;51.308;5.624;2023-06-14T13:45:02;25.80;49.60
7196;DHT22;3639;51.308;5.624;2023-06-14T13:47:28;25.70;50.60
7196;DHT22;3639;51.308;5.624;2023-06-14T13:49:54;25.80;51.20
7196;DHT22;3639;51.308;5.624;2023-06-14T13:52:19;25.90;52.50
7196;DHT22;3639;51.308;5.624;2023-06-14T13:54:46;25.90;51.30
7196;DHT22;3639;51.308;5.624;2023-06-14T13:57:11;26.00;51.70
7196;DHT22;3639;51.308;5.624;2023-06-14T13:59:38;26.00;52.00
7196;DHT22;3639;51.308;5.624;2023-06-14T14:02:04;26.00;50.20
7196;DHT22;3639;51.308;5.624;2023-06-14T14:04:31;26.00;50.70
7196;DHT22;3639;51.308;5.624;2023-06-14T14:06:57;25.90;50.60
7196;DHT22;3639;51.308;5.624;2023-06-14T14:09:22;25.90;51.10
7196;DHT22;3639;51.308;5.624;2023-06-14T14:11:48;25.90;51.30
7196;DHT22;3639;51.308;5.624;2023-06-14T14:14:14;26.00;50.30
7196;DHT22;3639;51.308;5.624;2023-06-14T14:16:40;26.00;50.70
7196;DHT22;3639;51.308;5.624;2023-06-14T14:19:05;25.90;50.90
7196;DHT22;3639;51.308;5.624;2023-06-14T14:21:32;25.90;49.60
7196;DHT22;3639;51.308;5.624;2023-06-14T14:23:58;25.90;51.40
7196;DHT22;3639;51.308;5.624;2023-06-14T14:26:23;25.90;51.80
7196;DHT22;3639;51.308;5.624;2023-06-14T14:28:50;25.90;50.70
7196;DHT22;3639;51.308;5.624;2023-06-14T14:31:16;25.90;51.50
7196;DHT22;3639;51.308;5.624;2023-06-14T14:33:42;26.00;50.70
7196;DHT22;3639;51.308;5.624;2023-06-14T14:36:07;25.80;50.40
7196;DHT22;3639;51.308;5.624;2023-06-14T14:38:33;25.80;50.70
7196;DHT22;3639;51.308;5.624;2023-06-14T14:40:59;25.80;51.30
7196;DHT22;3639;51.308;5.624;2023-06-14T14:43:24;25.80;50.40
7196;DHT22;3639;51.308;5.624;2023-06-14T14:45:50;25.80;50.70
7196;DHT22;3639;51.308;5.624;2023-06-14T14:48:16;25.70;51.00
7196;DHT22;3639;51.308;5.624;2023-06-14T14:50:41;25.80;49.70
7196;DHT22;3639;51.308;5.624;2023-06-14T14:53:07;25.70;50.20
7196;DHT22;3639;51.308;5.624;2023-06-14T14:55:32;25.60;50.50
7196;DHT22;3639;51.308;5.624;2023-06-14T14:58:01;25.70;51.50
7196;DHT22;3639;51.308;5.624;2023-06-14T15:00:27;25.70;51.00
7196;DHT22;3639;51.308;5.624;2023-06-14T15:02:53;25.80;52.00
7196;DHT22;3639;51.308;5.624;2023-06-14T15:05:18;25.80;52.40
7196;DHT22;3639;51.308;5.624;2023-06-14T15:07:44;25.80;51.90
7196;DHT22;3639;51.308;5.624;2023-06-14T15:10:11;25.80;51.50
7196;DHT22;3639;51.308;5.624;2023-06-14T15:12:37;25.70;51.90
7196;DHT22;3639;51.308;5.624;2023-06-14T15:15:03;25.70;51.80
7196;DHT22;3639;51.308;5.624;2023-06-14T15:17:29;25.70;51.60
7196;DHT22;3639;51.308;5.624;2023-06-14T15:19:55;25.70;51.40
7196;DHT22;3639;51.308;5.624;2023-06-14T15:22:20;25.70;51.60
7196;DHT22;3639;51.308;5.624;2023-06-14T15:24:46;25.90;52.20
7196;DHT22;3639;51.308;5.624;2023-06-14T15:27:12;26.00;50.50
7196;DHT22;3639;51.308;5.624;2023-06-14T15:29:41;25.90;50.70
7196;DHT22;3639;51.308;5.624;2023-06-14T15:32:07;26.00;51.80
7196;DHT22;3639;51.308;5.624;2023-06-14T15:34:33;25.90;52.80
7196;DHT22;3639;51.308;5.624;2023-06-14T15:36:59;26.00;52.50
7196;DHT22;3639;51.308;5.624;2023-06-14T15:39:26;26.00;52.60
7196;DHT22;3639;51.308;5.624;2023-06-14T15:41:52;25.90;51.10
7196;DHT22;3639;51.308;5.624;2023-06-14T15:44:18;25.90;52.40
7196;DHT22;3639;51.308;5.624;2023-06-14T15:46:43;25.80;51.90
7196;DHT22;3639;51.308;5.624;2023-06-14T15:49:09;25.70;52.30
7196;DHT22;3639;51.308;5.624;2023-06-14T15:51:39;25.70;53.30
7196;DHT22;3639;51.308;5.624;2023-06-14T15:54:04;25.70;52.30
7196;DHT22;3639;51.308;5.624;2023-06-14T15:56:30;25.80;53.30
7196;DHT22;3639;51.308;5.624;2023-06-14T15:58:56;25.80;53.40
7196;DHT22;3639;51.308;5.624;2023-06-14T16:01:23;25.80;52.70
7196;DHT22;3639;51.308;5.624;2023-06-14T16:03:50;25.80;54.00
7196;DHT22;3639;51.308;5.624;2023-06-14T16:06:16;25.90;51.80
7196;DHT22;3639;51.308;5.624;2023-06-14T16:08:41;26.00;52.80
7196;DHT22;3639;51.308;5.624;2023-06-14T16:11:07;25.90;51.60
7196;DHT22;3639;51.308;5.624;2023-06-14T16:13:33;25.80;51.30
7196;DHT22;3639;51.308;5.624;2023-06-14T16:15:59;25.70;51.30